createdAt,value
2019-04-22T00:01:34.587Z,48.00
2019-04-22T00:04:12.039Z,48.20
2019-04-22T00:07:07.018Z,48.40
2019-04-22T00:09:38.718Z,48.30
2019-04-22T00:12:13.797Z,48.50
2019-04-22T00:14:40.588Z,48.50
2019-04-22T00:17:27.680Z,48.50
2019-04-22T00:20:00.121Z,48.40
2019-04-22T00:22:27.442Z,48.40
2019-04-22T00:25:03.818Z,48.40
2019-04-22T00:27:38.347Z,48.50
2019-04-22T00:30:07.713Z,48.30
2019-04-22T00:32:36.703Z,48.60
2019-04-22T00:35:14.181Z,48.50
2019-04-22T00:37:54.834Z,48.70
2019-04-22T00:40:32.271Z,48.70
2019-04-22T00:42:55.298Z,49.00
2019-04-22T00:45:34.023Z,49.10
2019-04-22T00:48:00.979Z,48.80
2019-04-22T00:50:37.471Z,48.90
2019-04-22T00:53:11.950Z,48.80
2019-04-22T00:56:10.653Z,49.10
2019-04-22T01:01:19.134Z,49.00
2019-04-22T01:03:58.484Z,49.10
2019-04-22T01:06:20.465Z,49.30
2019-04-22T01:09:00.305Z,49.30
2019-04-22T01:11:29.706Z,49.60
2019-04-22T01:14:04.884Z,49.60
2019-04-22T01:16:39.277Z,49.60
2019-04-22T01:19:07.246Z,49.90
2019-04-22T01:24:16.383Z,49.90
2019-04-22T01:26:48.986Z,49.90
2019-04-22T01:29:14.961Z,50.10
2019-04-22T01:31:40.011Z,50.10
2019-04-22T01:34:27.863Z,49.90
2019-04-22T01:37:03.577Z,50.10
2019-04-22T01:39:45.517Z,50.00
2019-04-22T01:42:13.860Z,50.10
2019-04-22T01:44:49.603Z,50.10
2019-04-22T01:47:30.244Z,50.10
2019-04-22T01:49:53.871Z,50.20
2019-04-22T01:52:22.108Z,50.40
2019-04-22T01:55:08.865Z,50.40
2019-04-22T01:57:31.720Z,50.50
2019-04-22T01:59:58.721Z,50.60
2019-04-22T02:02:38.421Z,51.30
2019-04-22T02:05:15.763Z,51.00
2019-04-22T02:07:42.482Z,51.20
2019-04-22T02:10:19.371Z,51.10
2019-04-22T02:12:48.432Z,51.30
2019-04-22T02:15:24.067Z,51.30
2019-04-22T02:18:01.304Z,51.30
2019-04-22T02:20:32.900Z,51.60
2019-04-22T02:23:51.249Z,51.80
2019-04-22T02:26:15.810Z,51.80
2019-04-22T02:31:33.045Z,52.20
2019-04-22T02:34:09.069Z,52.20
2019-04-22T02:36:30.329Z,52.40
2019-04-22T02:44:30.364Z,52.60
2019-04-22T02:51:40.290Z,53.20
2019-04-22T02:57:04.384Z,53.30
2019-04-22T03:01:56.186Z,53.60
2019-04-22T03:04:31.864Z,53.70
2019-04-22T03:06:55.943Z,53.90
2019-04-22T03:09:55.474Z,54.10
2019-04-22T03:12:20.099Z,54.00
2019-04-22T03:14:48.436Z,54.30
2019-04-22T03:17:22.085Z,54.20
2019-04-22T03:20:02.615Z,54.30
2019-04-22T03:22:20.947Z,54.60
2019-04-22T03:27:33.822Z,54.70
2019-04-22T03:30:41.969Z,54.80
2019-04-22T03:35:37.368Z,55.10
2019-04-22T03:37:53.376Z,55.00
2019-04-22T03:43:02.324Z,55.00
2019-04-22T03:48:05.421Z,55.30
2019-04-22T03:53:15.117Z,56.20
2019-04-22T03:58:01.731Z,55.60
2019-04-22T04:00:49.967Z,55.60
2019-04-22T04:06:06.846Z,55.60
2019-04-22T04:10:55.326Z,56.10
2019-04-22T04:13:33.481Z,56.20
2019-04-22T04:16:07.774Z,56.50
2019-04-22T04:18:47.323Z,56.30
2019-04-22T04:24:01.390Z,56.40
2019-04-22T04:26:28.197Z,56.50
2019-04-22T04:31:43.263Z,56.90
2019-04-22T04:39:05.071Z,57.00
2019-04-22T04:41:42.143Z,57.20
2019-04-22T04:44:35.109Z,57.10
2019-04-22T04:47:37.182Z,57.20
2019-04-22T04:49:19.313Z,57.30
2019-04-22T04:51:51.286Z,57.30
2019-04-22T04:56:46.638Z,57.60
2019-04-22T04:59:46.007Z,57.80
2019-04-22T05:02:06.452Z,57.70
2019-04-22T05:04:51.065Z,57.70
2019-04-22T05:07:17.865Z,57.80
2019-04-22T05:09:37.146Z,57.80
2019-04-22T05:12:25.211Z,57.70
2019-04-22T05:14:46.498Z,57.80
2019-04-22T05:17:25.300Z,57.90
2019-04-22T05:19:56.842Z,57.80
2019-04-22T05:22:28.655Z,57.90
2019-04-22T05:24:59.294Z,58.00
2019-04-22T05:27:34.261Z,57.80
2019-04-22T05:30:19.862Z,57.70
2019-04-22T05:32:41.668Z,57.40
2019-04-22T05:35:06.859Z,57.00
2019-04-22T05:37:40.364Z,57.60
2019-04-22T05:40:19.963Z,56.50
2019-04-22T05:42:44.230Z,56.70
2019-04-22T05:45:21.647Z,56.30
2019-04-22T05:47:52.357Z,55.80
2019-04-22T05:50:24.568Z,55.70
2019-04-22T05:52:57.365Z,54.80
2019-04-22T05:55:36.093Z,54.60
2019-04-22T05:58:02.485Z,53.90
2019-04-22T06:01:06.581Z,54.20
2019-04-22T06:03:16.779Z,53.60
2019-04-22T06:05:47.377Z,53.30
2019-04-22T06:08:16.907Z,53.10
2019-04-22T06:11:05.689Z,52.90
2019-04-22T06:13:27.617Z,52.40
2019-04-22T06:16:03.646Z,52.30
2019-04-22T06:18:42.592Z,52.10
2019-04-22T06:21:20.264Z,51.70
2019-04-22T06:23:58.852Z,51.00
2019-04-22T06:26:29.265Z,51.60
2019-04-22T06:31:36.923Z,51.20
2019-04-22T06:36:37.458Z,51.40
2019-04-22T06:39:14.292Z,50.70
2019-04-22T06:41:47.977Z,50.40
2019-04-22T06:46:52.482Z,48.60
2019-04-22T06:52:05.729Z,47.90
2019-04-22T06:54:32.508Z,48.00
2019-04-22T06:57:06.238Z,47.90
2019-04-22T06:59:42.661Z,47.70
2019-04-22T07:02:24.083Z,48.40
2019-04-22T07:04:56.796Z,47.30
2019-04-22T07:07:24.029Z,46.00
2019-04-22T07:10:15.118Z,46.20
2019-04-22T07:12:43.113Z,44.90
2019-04-22T07:15:31.694Z,45.20
2019-04-22T07:17:58.185Z,46.10
2019-04-22T07:20:30.498Z,44.00
2019-04-22T07:23:08.260Z,42.90
2019-04-22T07:25:40.571Z,42.30
2019-04-22T07:28:20.214Z,42.80
2019-04-22T07:30:59.115Z,41.40
2019-04-22T07:33:58.306Z,41.70
2019-04-22T07:38:53.080Z,40.00
2019-04-22T07:41:34.479Z,40.00
2019-04-22T07:44:13.520Z,39.80
2019-04-22T07:46:41.758Z,40.00
2019-04-22T07:49:10.610Z,38.30
2019-04-22T07:54:16.339Z,37.80
2019-04-22T07:56:50.780Z,35.90
2019-04-22T07:59:22.258Z,36.90
2019-04-22T08:01:57.638Z,36.70
2019-04-22T08:07:05.410Z,34.90
2019-04-22T08:09:42.226Z,32.30
2019-04-22T08:12:04.108Z,32.80
2019-04-22T08:17:38.917Z,34.50
2019-04-22T08:19:50.229Z,34.80
2019-04-22T08:22:14.360Z,35.30
2019-04-22T08:24:54.003Z,35.40
2019-04-22T08:27:25.226Z,35.60
2019-04-22T08:30:06.665Z,34.90
2019-04-22T08:32:44.049Z,35.10
2019-04-22T08:35:20.247Z,36.80
2019-04-22T08:37:57.602Z,35.90
2019-04-22T08:40:37.444Z,35.90
2019-04-22T08:43:15.563Z,35.70
2019-04-22T08:45:46.791Z,35.90
2019-04-22T08:48:15.102Z,36.70
2019-04-22T08:50:54.103Z,36.60
2019-04-22T08:53:23.675Z,36.90
2019-04-22T08:56:07.346Z,36.80
2019-04-22T08:58:27.993Z,36.40
2019-04-22T09:01:04.910Z,36.70
2019-04-22T09:03:30.532Z,36.90
2019-04-22T09:06:15.630Z,35.10
2019-04-22T09:08:40.660Z,34.00
2019-04-22T09:11:24.685Z,34.00
2019-04-22T09:16:30.239Z,29.70
2019-04-22T09:18:56.115Z,29.30
2019-04-22T09:21:32.706Z,30.40
2019-04-22T09:26:44.971Z,29.50
2019-04-22T09:29:14.260Z,28.30
2019-04-22T09:31:45.761Z,29.60
2019-04-22T09:34:13.789Z,27.20
2019-04-22T09:36:49.983Z,28.00
2019-04-22T09:39:28.052Z,27.90
2019-04-22T09:41:59.421Z,27.80
2019-04-22T09:44:34.600Z,27.40
2019-04-22T09:47:00.381Z,26.80
2019-04-22T09:49:41.567Z,26.30
2019-04-22T09:52:14.882Z,25.50
2019-04-22T09:57:21.465Z,25.00
2019-04-22T09:59:57.503Z,24.50
2019-04-22T10:05:00.139Z,25.30
2019-04-22T10:07:32.037Z,23.80
2019-04-22T10:10:09.971Z,24.60
2019-04-22T10:12:42.869Z,24.20
2019-04-22T10:15:09.679Z,24.10
2019-04-22T10:17:47.796Z,24.90
2019-04-22T10:20:18.621Z,23.10
2019-04-22T10:23:11.196Z,25.00
2019-04-22T10:25:22.977Z,23.40
2019-04-22T10:28:03.335Z,23.80
2019-04-22T10:30:33.900Z,23.40
2019-04-22T10:32:59.208Z,23.30
2019-04-22T10:35:15.575Z,22.50
2019-04-22T10:37:42.912Z,21.40
2019-04-22T10:40:21.750Z,21.80
2019-04-22T10:42:53.608Z,21.70
2019-04-22T10:45:25.964Z,21.60
2019-04-22T10:47:58.350Z,22.10
2019-04-22T10:53:17.645Z,21.00
2019-04-22T10:55:51.612Z,20.90
2019-04-22T10:58:24.678Z,21.10
2019-04-22T11:00:58.098Z,21.40
2019-04-22T11:03:29.116Z,20.00
2019-04-22T11:06:03.334Z,19.70
2019-04-22T11:08:43.297Z,20.10
2019-04-22T11:11:26.340Z,20.50
2019-04-22T11:13:44.166Z,20.00
2019-04-22T11:16:17.590Z,18.70
2019-04-22T11:18:49.584Z,19.00
2019-04-22T11:21:20.484Z,19.10
2019-04-22T11:23:52.498Z,18.50
2019-04-22T11:26:23.975Z,18.90
2019-04-22T11:28:55.999Z,18.90
2019-04-22T11:31:28.273Z,19.00
2019-04-22T11:34:00.626Z,18.50
2019-04-22T11:36:32.601Z,17.80
2019-04-22T11:39:06.117Z,17.90
2019-04-22T11:41:36.405Z,17.70
2019-04-22T11:44:09.569Z,17.90
2019-04-22T11:46:43.204Z,16.90
2019-04-22T11:49:36.235Z,17.60
2019-04-22T11:52:09.276Z,17.70
2019-04-22T11:54:44.141Z,16.70
2019-04-22T11:57:15.225Z,17.30
2019-04-22T11:59:54.717Z,17.30
2019-04-22T12:02:27.323Z,16.80
2019-04-22T12:04:58.616Z,17.20
2019-04-22T12:07:34.807Z,17.80
2019-04-22T12:10:22.372Z,17.40
2019-04-22T12:12:39.689Z,17.60
2019-04-22T12:15:15.041Z,16.40
2019-04-22T12:17:46.221Z,16.90
2019-04-22T12:20:20.222Z,16.60
2019-04-22T12:22:53.296Z,16.50
2019-04-22T12:25:39.199Z,17.20
2019-04-22T12:27:59.211Z,16.40
2019-04-22T12:30:33.404Z,16.10
2019-04-22T12:33:07.390Z,15.40
2019-04-22T12:35:37.068Z,14.30
2019-04-22T12:38:10.297Z,15.20
2019-04-22T12:40:47.656Z,15.80
2019-04-22T12:43:16.102Z,15.00
2019-04-22T12:45:48.049Z,14.60
2019-04-22T12:48:21.159Z,14.80
2019-04-22T12:50:54.340Z,14.80
2019-04-22T12:53:27.609Z,15.00
2019-04-22T12:55:57.440Z,14.50
2019-04-22T12:58:29.800Z,14.50
2019-04-22T13:01:01.298Z,14.70
2019-04-22T13:03:32.132Z,13.20
2019-04-22T13:06:05.917Z,14.80
2019-04-22T13:08:38.090Z,14.70
2019-04-22T13:11:13.047Z,14.40
2019-04-22T13:13:44.941Z,14.40
2019-04-22T13:16:17.500Z,15.70
2019-04-22T13:18:55.677Z,15.50
2019-04-22T13:21:20.754Z,14.70
2019-04-22T13:23:52.910Z,14.60
2019-04-22T13:26:25.428Z,14.90
2019-04-22T13:28:56.970Z,14.80
2019-04-22T13:31:28.890Z,15.30
2019-04-22T13:34:02.285Z,15.50
2019-04-22T13:36:32.403Z,15.60
2019-04-22T13:39:04.866Z,16.00
2019-04-22T13:41:43.936Z,15.70
2019-04-22T13:44:09.116Z,16.20
2019-04-22T13:46:59.066Z,15.70
2019-04-22T13:49:40.439Z,16.50
2019-04-22T13:57:18.160Z,16.50
2019-04-22T13:59:38.106Z,16.90
2019-04-22T14:02:22.229Z,15.80
2019-04-22T14:04:54.768Z,15.90
2019-04-22T14:07:26.469Z,16.30
2019-04-22T14:09:58.260Z,16.10
2019-04-22T14:12:28.932Z,16.20
2019-04-22T14:15:00.243Z,16.20
2019-04-22T14:17:31.553Z,16.70
2019-04-22T14:20:04.791Z,16.90
2019-04-22T14:22:37.009Z,16.70
2019-04-22T14:25:10.558Z,17.50
2019-04-22T14:27:51.144Z,16.90
2019-04-22T14:30:16.768Z,17.10
2019-04-22T14:32:49.459Z,16.80
2019-04-22T14:35:20.929Z,17.20
2019-04-22T14:37:52.251Z,17.30
2019-04-22T14:40:26.296Z,17.80
2019-04-22T14:44:45.176Z,17.60
2019-04-22T14:46:04.357Z,18.00
2019-04-22T14:48:31.609Z,18.60
2019-04-22T14:50:57.500Z,19.20
2019-04-22T14:53:30.783Z,19.80
2019-04-22T14:55:46.370Z,19.70
2019-04-22T14:58:17.417Z,19.90
2019-04-22T15:00:51.121Z,20.20
2019-04-22T15:03:21.965Z,20.40
2019-04-22T15:05:54.423Z,20.90
2019-04-22T15:08:26.810Z,21.30
2019-04-22T15:10:58.313Z,21.70
2019-04-22T15:13:31.594Z,21.50
2019-04-22T15:16:25.672Z,21.80
2019-04-22T15:19:19.958Z,21.70
2019-04-22T15:21:52.490Z,22.30
2019-04-22T15:24:25.086Z,22.20
2019-04-22T15:27:00.870Z,22.90
2019-04-22T15:29:33.580Z,23.30
2019-04-22T15:32:05.270Z,23.70
2019-04-22T15:34:36.679Z,24.50
2019-04-22T15:37:08.552Z,23.70
2019-04-22T15:39:41.546Z,24.20
2019-04-22T15:42:20.775Z,24.40
2019-04-22T15:44:46.247Z,24.40
2019-04-22T15:47:18.645Z,24.40
2019-04-22T15:49:49.968Z,24.50
2019-04-22T15:52:30.301Z,24.90
2019-04-22T15:54:54.040Z,24.70
2019-04-22T15:57:26.353Z,24.80
2019-04-22T16:00:10.835Z,24.60
2019-04-22T16:02:29.940Z,25.00
2019-04-22T16:05:04.497Z,24.70
2019-04-22T16:07:36.055Z,24.70
2019-04-22T16:10:07.972Z,24.80
2019-04-22T16:12:47.494Z,25.00
2019-04-22T16:15:13.281Z,25.10
2019-04-22T16:17:44.581Z,25.30
2019-04-22T16:20:17.223Z,25.40
2019-04-22T16:23:05.751Z,25.20
2019-04-22T16:25:51.401Z,25.30
2019-04-22T16:28:22.415Z,25.40
2019-04-22T16:30:57.519Z,25.40
2019-04-22T16:33:35.777Z,25.70
2019-04-22T16:36:06.836Z,26.20
2019-04-22T16:38:38.139Z,26.60
2019-04-22T16:41:10.916Z,26.40
2019-04-22T16:43:42.858Z,26.70
2019-04-22T16:46:14.035Z,27.00
2019-04-22T16:48:47.658Z,27.00
2019-04-22T16:51:20.101Z,27.30
2019-04-22T16:53:50.975Z,27.40
2019-04-22T16:56:26.729Z,27.60
2019-04-22T16:58:58.899Z,27.80
2019-04-22T17:01:52.779Z,28.00
2019-04-22T17:04:46.764Z,27.90
2019-04-22T17:07:20.426Z,28.20
2019-04-22T17:09:52.149Z,28.50
2019-04-22T17:12:23.931Z,28.60
2019-04-22T17:15:05.732Z,28.40
2019-04-22T17:17:32.695Z,28.50
2019-04-22T17:20:07.441Z,28.60
2019-04-22T17:22:39.717Z,28.50
2019-04-22T17:25:12.318Z,28.20
2019-04-22T17:27:43.480Z,28.40
2019-04-22T17:30:16.670Z,28.30
2019-04-22T17:32:48.402Z,28.50
2019-04-22T17:35:20.169Z,28.40
2019-04-22T17:38:04.202Z,28.60
2019-04-22T17:40:44.953Z,28.50
2019-04-22T17:43:30.107Z,28.60
2019-04-22T17:46:15.144Z,28.60
2019-04-22T17:49:10.248Z,28.70
2019-04-22T17:51:47.753Z,28.90
2019-04-22T17:54:21.419Z,28.90
2019-04-22T17:56:51.070Z,29.10
2019-04-22T17:59:26.861Z,29.20
2019-04-22T18:01:53.959Z,29.10
2019-04-22T18:04:09.089Z,29.30
2019-04-22T18:07:07.362Z,30.00
2019-04-22T18:10:14.477Z,29.80
2019-04-22T18:12:20.493Z,29.70
2019-04-22T18:14:59.590Z,29.80
2019-04-22T18:17:29.151Z,29.80
2019-04-22T18:19:54.713Z,30.00
2019-04-22T18:22:23.086Z,30.00
2019-04-22T18:24:58.328Z,30.00
2019-04-22T18:30:06.403Z,30.00
2019-04-22T18:32:42.494Z,30.50
2019-04-22T18:35:08.059Z,30.50
2019-04-22T18:37:50.544Z,30.50
2019-04-22T18:40:18.129Z,30.70
2019-04-22T18:42:52.493Z,31.10
2019-04-22T18:47:53.167Z,31.30
2019-04-22T18:50:41.520Z,31.30
2019-04-22T18:53:27.313Z,31.70
2019-04-22T18:56:03.910Z,31.50
2019-04-22T18:58:33.276Z,31.80
2019-04-22T19:00:52.748Z,32.00
2019-04-22T19:03:29.513Z,32.00
2019-04-22T19:06:32.198Z,32.10
2019-04-22T19:08:51.791Z,32.50
2019-04-22T19:11:26.733Z,32.60
2019-04-22T19:16:39.733Z,32.60
2019-04-22T19:19:29.373Z,32.90
2019-04-22T19:21:39.432Z,33.00
2019-04-22T19:26:58.042Z,33.20
2019-04-22T19:29:20.351Z,33.10
2019-04-22T19:31:51.363Z,33.10
2019-04-22T19:34:25.281Z,33.10
2019-04-22T19:37:00.638Z,33.10
2019-04-22T19:39:31.070Z,33.10
2019-04-22T19:42:28.700Z,33.10
2019-04-22T19:44:37.736Z,33.30
2019-04-22T19:47:26.305Z,33.60
2019-04-22T19:49:54.578Z,33.70
2019-04-22T19:52:24.093Z,33.90
2019-04-22T19:54:58.334Z,33.90
2019-04-22T19:57:27.626Z,34.00
2019-04-22T20:00:03.826Z,34.10
2019-04-22T20:03:12.604Z,34.30
2019-04-22T20:05:50.873Z,34.30
2019-04-22T20:08:20.831Z,34.40
2019-04-22T20:10:52.258Z,34.50
2019-04-22T20:13:36.998Z,34.40
2019-04-22T20:15:55.289Z,34.50
2019-04-22T20:18:46.381Z,34.60
2019-04-22T20:21:18.319Z,34.20
2019-04-22T20:24:12.019Z,34.10
2019-04-22T20:27:02.855Z,34.30
2019-04-22T20:29:41.732Z,34.00
2019-04-22T20:32:15.699Z,34.00
2019-04-22T20:35:09.316Z,34.00
2019-04-22T20:38:04.254Z,34.10
2019-04-22T20:40:23.329Z,34.00
2019-04-22T20:43:01.420Z,34.10
2019-04-22T20:45:51.180Z,34.30
2019-04-22T20:48:15.847Z,34.40
2019-04-22T20:51:00.957Z,34.40
2019-04-22T20:53:36.409Z,34.20
2019-04-22T20:56:08.914Z,34.10
2019-04-22T20:58:42.801Z,34.00
2019-04-22T21:00:59.867Z,33.60
2019-04-22T21:03:33.335Z,33.50
2019-04-22T21:06:16.389Z,33.50
2019-04-22T21:08:54.656Z,33.30
2019-04-22T21:11:19.381Z,33.10
2019-04-22T21:13:56.108Z,33.00
2019-04-22T21:16:36.579Z,33.00
2019-04-22T21:19:03.810Z,32.90
2019-04-22T21:21:45.008Z,33.10
2019-04-22T21:24:09.205Z,33.00
2019-04-22T21:26:51.317Z,33.20
2019-04-22T21:29:26.293Z,33.20
2019-04-22T21:32:09.066Z,33.20
2019-04-22T21:34:47.575Z,33.10
2019-04-22T21:37:31.906Z,33.10
2019-04-22T21:39:43.657Z,33.10
2019-04-22T21:42:36.718Z,33.20
2019-04-22T21:45:05.582Z,33.20
2019-04-22T21:47:55.640Z,33.00
2019-04-22T21:50:35.608Z,32.90
2019-04-22T21:52:56.843Z,32.90
2019-04-22T21:55:29.783Z,33.00
2019-04-22T21:58:06.876Z,32.90
2019-04-22T22:00:53.509Z,32.80
2019-04-22T22:03:21.851Z,32.70
2019-04-22T22:05:41.629Z,32.60
2019-04-22T22:08:27.572Z,32.60
2019-04-22T22:10:51.135Z,32.70
2019-04-22T22:13:27.070Z,32.60
2019-04-22T22:16:00.131Z,32.50
2019-04-22T22:18:30.750Z,32.50
2019-04-22T22:21:30.943Z,32.50
2019-04-22T22:23:45.668Z,32.60
2019-04-22T22:26:10.990Z,32.50
2019-04-22T22:28:57.202Z,32.40
2019-04-22T22:31:28.618Z,32.40
2019-04-22T22:33:57.685Z,32.30
2019-04-22T22:36:23.715Z,32.30
2019-04-22T22:38:54.618Z,32.50
2019-04-22T22:41:14.090Z,32.30
2019-04-22T22:43:49.113Z,32.50
2019-04-22T22:46:29.577Z,32.60
2019-04-22T22:49:18.549Z,32.60
2019-04-22T22:51:57.281Z,32.80
2019-04-22T22:54:17.552Z,33.00
2019-04-22T22:57:05.338Z,33.10
2019-04-22T22:59:27.637Z,33.20
2019-04-22T23:02:01.290Z,33.50
2019-04-22T23:04:41.190Z,33.40
2019-04-22T23:07:11.151Z,33.60
2019-04-22T23:09:47.210Z,33.60
2019-04-22T23:12:31.505Z,33.80
2019-04-22T23:14:52.351Z,33.60
2019-04-22T23:17:07.504Z,33.70
2019-04-22T23:19:39.831Z,33.70
2019-04-22T23:22:20.569Z,33.70
2019-04-22T23:25:11.743Z,33.80
2019-04-22T23:27:51.516Z,33.80
2019-04-22T23:30:43.488Z,33.80
2019-04-22T23:33:26.421Z,33.80
2019-04-22T23:36:10.653Z,33.70
2019-04-22T23:38:50.608Z,33.70
2019-04-22T23:44:17.727Z,33.70
2019-04-22T23:46:52.176Z,33.80
2019-04-22T23:49:26.726Z,33.70
2019-04-22T23:52:19.244Z,34.50
2019-04-22T23:54:39.294Z,33.80
2019-04-22T23:57:03.385Z,33.80
